Terminal Aerodrome Forecast
Issued by NWS

Home | Current Version | Previous Version | Text Only | Print | Product List | Glossary On
Versions: 1 2 3 4 5 6 7 8 9 10 11 12 13 14 15 16
947
FTUS42 KTAE 222105 AAA
TAFABY
TAF AMD
KABY 222105Z 2221/2318 16009KT P6SM BKN050
     FM230000 13003KT P6SM FEW040
     FM231000 09003KT 3SM BR SCT005 BKN010
     FM231400 13006KT P6SM SCT025=

USA.gov is the U.S. government's official web portal to all federal, state and local government web resources and services.